Terminal Aerodrome Forecast
Issued by NWS

Home | Current Version | Previous Version | Text Only | Print | Product List | Glossary On
Versions: 1 2 3 4 5 6 7 8 9 10 11 12 13 14
000
FTAK31 PAJN 311300 AAA
TAFASI
TAF AMD
PASI 311319Z 3113/0112 VRB05KT P6SM -SHRA SCT020 BKN025 OVC035
      TEMPO 3113/3115 4SM SHRA BR
     FM311800 12012KT P6SM -SHRA SCT015 OVC030
     FM010700 12015G25KT P6SM -RA OVC025 WS020/13045KT=

USA.gov is the U.S. government's official web portal to all federal, state and local government web resources and services.